AZU5198 SBKP-SBAQ
Flight info
| Callsign | AZU5198 |
|---|---|
| Flight time | 0h 49m |
| Altitude | 6000 |
| Route | GENBI DCT MEVUT/N0177F070 |
| Aircraft | C208/L-SDFGR/C |
Departure
| Time | 2026-05-06 13:14 |
|---|---|
| Airport | Viracopos International Airport (SBKP) |
Arrival
| Time | 2026-05-06 14:04 |
|---|---|
| Airport | Araraquara Airport (SBAQ) |
| Time | Latitude | Longitude | Altitude | Speed | Heading |
|---|---|---|---|---|---|
| 2026-05-06 12:47 | -23.00315 | -47.14729 | 2156 ft | 0 kts | 38° |
| 2026-05-06 13:07 | -23.00314 | -47.14729 | 2156 ft | 1 kts | 38° |
| 2026-05-06 13:08 | -23.00315 | -47.14756 | 2154 ft | 9 kts | 249° |
| 2026-05-06 13:08 | -23.00324 | -47.14801 | 2156 ft | 5 kts | 267° |
| 2026-05-06 13:08 | -23.00306 | -47.14863 | 2156 ft | 13 kts | 290° |
| 2026-05-06 13:08 | -23.00262 | -47.14924 | 2156 ft | 7 kts | 314° |
| 2026-05-06 13:09 | -23.00223 | -47.14969 | 2156 ft | 12 kts | 314° |
| 2026-05-06 13:09 | -23.00142 | -47.14972 | 2153 ft | 15 kts | 40° |
| 2026-05-06 13:09 | -23.00038 | -47.14882 | 2154 ft | 19 kts | 36° |
| 2026-05-06 13:09 | -22.99969 | -47.14798 | 2153 ft | 15 kts | 38° |
| 2026-05-06 13:10 | -22.99924 | -47.14759 | 2156 ft | 2 kts | 44° |
| 2026-05-06 13:10 | -22.99923 | -47.14759 | 2156 ft | 0 kts | 44° |
| 2026-05-06 13:11 | -22.99909 | -47.14741 | 2156 ft | 9 kts | 56° |
| 2026-05-06 13:12 | -22.99892 | -47.14673 | 2155 ft | 7 kts | 90° |
| 2026-05-06 13:12 | -22.99941 | -47.14571 | 2152 ft | 32 kts | 128° |
| 2026-05-06 13:12 | -23.00155 | -47.14269 | 2153 ft | 66 kts | 128° |
| 2026-05-06 13:12 | -23.00490 | -47.13797 | 2157 ft | 89 kts | 127° |
| 2026-05-06 13:13 | -23.00848 | -47.13236 | 2262 ft | 90 kts | 125° |
| 2026-05-06 13:13 | -23.01217 | -47.12687 | 2372 ft | 90 kts | 131° |
| 2026-05-06 13:13 | -23.01615 | -47.12193 | 2534 ft | 84 kts | 128° |
| 2026-05-06 13:13 | -23.02011 | -47.11710 | 2602 ft | 90 kts | 134° |
| 2026-05-06 13:14 | -23.02456 | -47.11205 | 2688 ft | 94 kts | 131° |
| 2026-05-06 13:14 | -23.02898 | -47.10678 | 2832 ft | 94 kts | 130° |
| 2026-05-06 13:14 | -23.03342 | -47.10171 | 3010 ft | 90 kts | 130° |
| 2026-05-06 13:14 | -23.03819 | -47.09699 | 3111 ft | 95 kts | 146° |
| 2026-05-06 13:15 | -23.04453 | -47.09453 | 3202 ft | 101 kts | 171° |
| 2026-05-06 13:15 | -23.05151 | -47.09533 | 3309 ft | 103 kts | 199° |
| 2026-05-06 13:15 | -23.05719 | -47.10022 | 3378 ft | 107 kts | 235° |
| 2026-05-06 13:15 | -23.06004 | -47.10764 | 3489 ft | 108 kts | 259° |
| 2026-05-06 13:16 | -23.05993 | -47.11579 | 3564 ft | 109 kts | 287° |
| 2026-05-06 13:16 | -23.05731 | -47.12390 | 3586 ft | 117 kts | 290° |
| 2026-05-06 13:16 | -23.05524 | -47.13243 | 3674 ft | 117 kts | 276° |
| 2026-05-06 13:16 | -23.05536 | -47.14140 | 3716 ft | 121 kts | 265° |
| 2026-05-06 13:17 | -23.05659 | -47.15045 | 3787 ft | 122 kts | 260° |
| 2026-05-06 13:17 | -23.05924 | -47.15892 | 3924 ft | 116 kts | 227° |
| 2026-05-06 13:17 | -23.06627 | -47.16120 | 4078 ft | 107 kts | 174° |
| 2026-05-06 13:17 | -23.07342 | -47.15945 | 4248 ft | 102 kts | 162° |
| 2026-05-06 13:18 | -23.08028 | -47.15824 | 4411 ft | 104 kts | 195° |
| 2026-05-06 13:18 | -23.08534 | -47.16373 | 4597 ft | 108 kts | 242° |
| 2026-05-06 13:18 | -23.08786 | -47.17153 | 4763 ft | 106 kts | 264° |
| 2026-05-06 13:18 | -23.08795 | -47.17620 | 4877 ft | 102 kts | 271° |
| 2026-05-06 13:19 | -23.08802 | -47.18014 | 4964 ft | 102 kts | 269° |
| 2026-05-06 13:19 | -23.08822 | -47.18781 | 5132 ft | 103 kts | 270° |
| 2026-05-06 13:19 | -23.08801 | -47.19553 | 5304 ft | 102 kts | 274° |
| 2026-05-06 13:19 | -23.08770 | -47.20338 | 5484 ft | 105 kts | 274° |
| 2026-05-06 13:20 | -23.08732 | -47.21140 | 5662 ft | 107 kts | 274° |
| 2026-05-06 13:20 | -23.08687 | -47.22019 | 5670 ft | 126 kts | 275° |
| 2026-05-06 13:20 | -23.08630 | -47.23019 | 5706 ft | 137 kts | 275° |
| 2026-05-06 13:20 | -23.08549 | -47.24060 | 5795 ft | 140 kts | 278° |
| 2026-05-06 13:21 | -23.08404 | -47.25110 | 5879 ft | 141 kts | 279° |
| 2026-05-06 13:21 | -23.08270 | -47.26152 | 5947 ft | 142 kts | 279° |
| 2026-05-06 13:21 | -23.08116 | -47.27238 | 5955 ft | 148 kts | 282° |
| 2026-05-06 13:21 | -23.07911 | -47.28349 | 5957 ft | 151 kts | 283° |
| 2026-05-06 13:22 | -23.07700 | -47.29490 | 5957 ft | 156 kts | 282° |
| 2026-05-06 13:22 | -23.07525 | -47.30651 | 5960 ft | 159 kts | 279° |
| 2026-05-06 13:22 | -23.07359 | -47.31852 | 5949 ft | 160 kts | 280° |
| 2026-05-06 13:22 | -23.07190 | -47.33055 | 5957 ft | 162 kts | 279° |
| 2026-05-06 13:23 | -23.07020 | -47.34267 | 5944 ft | 161 kts | 280° |
| 2026-05-06 13:23 | -23.06855 | -47.35449 | 5946 ft | 160 kts | 280° |
| 2026-05-06 13:23 | -23.06688 | -47.36645 | 5950 ft | 160 kts | 280° |
| 2026-05-06 13:23 | -23.06522 | -47.37850 | 5949 ft | 160 kts | 280° |
| 2026-05-06 13:24 | -23.06274 | -47.39029 | 5954 ft | 160 kts | 287° |
| 2026-05-06 13:24 | -23.05975 | -47.40183 | 5949 ft | 160 kts | 287° |
| 2026-05-06 13:24 | -23.05677 | -47.41353 | 5940 ft | 159 kts | 287° |
| 2026-05-06 13:24 | -23.05375 | -47.42523 | 5953 ft | 162 kts | 288° |
| 2026-05-06 13:25 | -23.05059 | -47.43684 | 5955 ft | 162 kts | 288° |
| 2026-05-06 13:25 | -23.04736 | -47.44867 | 5947 ft | 163 kts | 288° |
| 2026-05-06 13:25 | -23.04415 | -47.46041 | 5955 ft | 162 kts | 288° |
| 2026-05-06 13:25 | -23.03989 | -47.47148 | 5936 ft | 160 kts | 290° |
| 2026-05-06 13:26 | -23.03630 | -47.48285 | 5939 ft | 159 kts | 309° |
| 2026-05-06 13:26 | -23.02836 | -47.49111 | 5943 ft | 158 kts | 324° |
| 2026-05-06 13:26 | -23.02248 | -47.49578 | 5942 ft | 158 kts | 327° |
| 2026-05-06 13:26 | -23.01314 | -47.50191 | 5943 ft | 156 kts | 334° |
| 2026-05-06 13:27 | -23.00342 | -47.50707 | 5950 ft | 156 kts | 338° |
| 2026-05-06 13:27 | -22.99360 | -47.51194 | 5950 ft | 157 kts | 338° |
| 2026-05-06 13:27 | -22.97997 | -47.51458 | 5938 ft | 150 kts | 25° |
| 2026-05-06 13:27 | -22.97376 | -47.51113 | 5933 ft | 148 kts | 22° |
| 2026-05-06 13:28 | -22.96368 | -47.51216 | 5937 ft | 154 kts | 339° |
| 2026-05-06 13:28 | -22.95442 | -47.51822 | 5935 ft | 156 kts | 324° |
| 2026-05-06 13:28 | -22.94590 | -47.52550 | 5935 ft | 158 kts | 324° |
| 2026-05-06 13:28 | -22.93842 | -47.53425 | 5931 ft | 158 kts | 309° |
| 2026-05-06 13:29 | -22.93193 | -47.54391 | 5937 ft | 159 kts | 307° |
| 2026-05-06 13:29 | -22.92583 | -47.55382 | 5937 ft | 160 kts | 306° |
| 2026-05-06 13:29 | -22.91989 | -47.56413 | 5938 ft | 161 kts | 303° |
| 2026-05-06 13:29 | -22.91408 | -47.57454 | 5937 ft | 160 kts | 303° |
| 2026-05-06 13:30 | -22.90830 | -47.58473 | 5939 ft | 161 kts | 303° |
| 2026-05-06 13:30 | -22.90175 | -47.59464 | 5937 ft | 162 kts | 314° |
| 2026-05-06 13:30 | -22.89396 | -47.60337 | 5932 ft | 158 kts | 320° |
| 2026-05-06 13:30 | -22.88587 | -47.61141 | 5930 ft | 156 kts | 319° |
| 2026-05-06 13:31 | -22.87807 | -47.61938 | 5939 ft | 157 kts | 320° |
| 2026-05-06 13:31 | -22.86975 | -47.62734 | 5938 ft | 160 kts | 322° |
| 2026-05-06 13:31 | -22.86107 | -47.63477 | 5935 ft | 159 kts | 324° |
| 2026-05-06 13:31 | -22.85262 | -47.64212 | 5999 ft | 153 kts | 324° |
| 2026-05-06 13:32 | -22.84457 | -47.64920 | 6122 ft | 145 kts | 323° |
| 2026-05-06 13:32 | -22.83677 | -47.65609 | 6228 ft | 145 kts | 323° |
| 2026-05-06 13:32 | -22.82853 | -47.66332 | 6236 ft | 158 kts | 323° |
| 2026-05-06 13:32 | -22.81981 | -47.67116 | 6233 ft | 165 kts | 322° |
| 2026-05-06 13:33 | -22.81099 | -47.67923 | 6246 ft | 167 kts | 322° |
| 2026-05-06 13:33 | -22.80215 | -47.68731 | 6252 ft | 169 kts | 322° |
| 2026-05-06 13:33 | -22.79305 | -47.69560 | 6256 ft | 172 kts | 322° |
| 2026-05-06 13:33 | -22.78385 | -47.70393 | 6250 ft | 171 kts | 322° |
| 2026-05-06 13:34 | -22.77467 | -47.71228 | 6252 ft | 172 kts | 322° |
| 2026-05-06 13:34 | -22.76562 | -47.72053 | 6251 ft | 171 kts | 322° |
| 2026-05-06 13:34 | -22.75644 | -47.72885 | 6252 ft | 172 kts | 322° |
| 2026-05-06 13:34 | -22.74716 | -47.73724 | 6252 ft | 173 kts | 322° |
| 2026-05-06 13:35 | -22.73806 | -47.74552 | 6246 ft | 171 kts | 322° |
| 2026-05-06 13:35 | -22.72889 | -47.75379 | 6249 ft | 170 kts | 322° |
| 2026-05-06 13:35 | -22.71969 | -47.76210 | 6247 ft | 171 kts | 322° |
| 2026-05-06 13:35 | -22.71065 | -47.77038 | 6246 ft | 172 kts | 321° |
| 2026-05-06 13:36 | -22.70170 | -47.77906 | 6245 ft | 171 kts | 320° |
| 2026-05-06 13:36 | -22.69280 | -47.78767 | 6245 ft | 171 kts | 321° |
| 2026-05-06 13:36 | -22.68397 | -47.79616 | 6250 ft | 171 kts | 321° |
| 2026-05-06 13:36 | -22.67504 | -47.80478 | 6242 ft | 175 kts | 321° |
| 2026-05-06 13:37 | -22.66589 | -47.81354 | 6241 ft | 175 kts | 321° |
| 2026-05-06 13:37 | -22.65678 | -47.82228 | 6233 ft | 174 kts | 321° |
| 2026-05-06 13:37 | -22.64781 | -47.83091 | 6234 ft | 172 kts | 321° |
| 2026-05-06 13:37 | -22.63885 | -47.83954 | 6238 ft | 174 kts | 321° |
| 2026-05-06 13:38 | -22.62981 | -47.84832 | 6235 ft | 175 kts | 321° |
| 2026-05-06 13:38 | -22.62076 | -47.85707 | 6231 ft | 173 kts | 321° |
| 2026-05-06 13:38 | -22.61184 | -47.86567 | 6236 ft | 174 kts | 321° |
| 2026-05-06 13:38 | -22.60291 | -47.87438 | 6237 ft | 173 kts | 321° |
| 2026-05-06 13:39 | -22.59379 | -47.88312 | 6236 ft | 175 kts | 321° |
| 2026-05-06 13:39 | -22.58481 | -47.89167 | 6235 ft | 173 kts | 321° |
| 2026-05-06 13:39 | -22.57575 | -47.90037 | 6242 ft | 175 kts | 321° |
| 2026-05-06 13:39 | -22.56666 | -47.90923 | 6230 ft | 176 kts | 319° |
| 2026-05-06 13:40 | -22.55794 | -47.91840 | 6235 ft | 173 kts | 318° |
| 2026-05-06 13:40 | -22.54940 | -47.92752 | 6233 ft | 174 kts | 318° |
| 2026-05-06 13:40 | -22.54075 | -47.93671 | 6232 ft | 173 kts | 318° |
| 2026-05-06 13:40 | -22.53218 | -47.94583 | 6226 ft | 173 kts | 318° |
| 2026-05-06 13:41 | -22.52360 | -47.95496 | 6234 ft | 174 kts | 318° |
| 2026-05-06 13:41 | -22.51486 | -47.96415 | 6241 ft | 177 kts | 319° |
| 2026-05-06 13:41 | -22.50595 | -47.97351 | 6232 ft | 176 kts | 319° |
| 2026-05-06 13:41 | -22.49719 | -47.98247 | 6235 ft | 175 kts | 320° |
| 2026-05-06 13:42 | -22.48810 | -47.99140 | 6233 ft | 177 kts | 321° |
| 2026-05-06 13:42 | -22.47901 | -48.00029 | 6232 ft | 174 kts | 320° |
| 2026-05-06 13:42 | -22.47023 | -48.00890 | 6238 ft | 171 kts | 321° |
| 2026-05-06 13:42 | -22.46125 | -48.01768 | 6238 ft | 175 kts | 321° |
| 2026-05-06 13:43 | -22.45192 | -48.02610 | 6234 ft | 173 kts | 323° |
| 2026-05-06 13:43 | -22.44261 | -48.03432 | 6240 ft | 174 kts | 323° |
| 2026-05-06 13:43 | -22.43327 | -48.04241 | 6240 ft | 174 kts | 324° |
| 2026-05-06 13:43 | -22.42394 | -48.05072 | 6237 ft | 173 kts | 323° |
| 2026-05-06 13:44 | -22.41464 | -48.05920 | 6238 ft | 175 kts | 323° |
| 2026-05-06 13:44 | -22.40537 | -48.06760 | 6226 ft | 175 kts | 323° |
| 2026-05-06 13:44 | -22.39613 | -48.07599 | 6230 ft | 171 kts | 322° |
| 2026-05-06 13:44 | -22.38695 | -48.08432 | 6235 ft | 173 kts | 323° |
| 2026-05-06 13:45 | -22.37762 | -48.09273 | 6237 ft | 175 kts | 323° |
| 2026-05-06 13:45 | -22.35898 | -48.10953 | 6233 ft | 176 kts | 323° |
| 2026-05-06 13:45 | -22.34948 | -48.11799 | 6235 ft | 177 kts | 323° |
| 2026-05-06 13:46 | -22.34007 | -48.12636 | 6238 ft | 178 kts | 323° |
| 2026-05-06 13:46 | -22.33060 | -48.13489 | 6222 ft | 175 kts | 323° |
| 2026-05-06 13:46 | -22.32132 | -48.14323 | 6227 ft | 173 kts | 323° |
| 2026-05-06 13:46 | -22.31201 | -48.15154 | 6220 ft | 173 kts | 323° |
| 2026-05-06 13:47 | -22.30265 | -48.15984 | 6227 ft | 173 kts | 323° |
| 2026-05-06 13:47 | -22.29349 | -48.16800 | 6224 ft | 172 kts | 323° |
| 2026-05-06 13:47 | -22.28426 | -48.17631 | 6222 ft | 172 kts | 323° |
| 2026-05-06 13:47 | -22.27499 | -48.18456 | 6225 ft | 173 kts | 323° |
| 2026-05-06 13:48 | -22.26563 | -48.19292 | 6219 ft | 173 kts | 323° |
| 2026-05-06 13:48 | -22.25644 | -48.20112 | 6215 ft | 173 kts | 324° |
| 2026-05-06 13:48 | -22.24722 | -48.20932 | 6226 ft | 172 kts | 323° |
| 2026-05-06 13:48 | -22.23796 | -48.21758 | 6220 ft | 171 kts | 323° |
| 2026-05-06 13:49 | -22.22883 | -48.22572 | 6221 ft | 169 kts | 323° |
| 2026-05-06 13:49 | -22.21978 | -48.23380 | 6230 ft | 169 kts | 323° |
| 2026-05-06 13:49 | -22.21065 | -48.24191 | 6226 ft | 171 kts | 323° |
| 2026-05-06 13:49 | -22.20052 | -48.24798 | 6219 ft | 166 kts | 357° |
| 2026-05-06 13:50 | -22.19037 | -48.24407 | 6232 ft | 160 kts | 49° |
| 2026-05-06 13:50 | -22.18750 | -48.23285 | 6238 ft | 162 kts | 98° |
| 2026-05-06 13:50 | -22.19028 | -48.22090 | 6232 ft | 165 kts | 103° |
| 2026-05-06 13:50 | -22.19319 | -48.20892 | 6235 ft | 164 kts | 103° |
| 2026-05-06 13:51 | -22.19611 | -48.19699 | 6232 ft | 163 kts | 103° |
| 2026-05-06 13:51 | -22.19900 | -48.18518 | 6241 ft | 163 kts | 103° |
| 2026-05-06 13:51 | -22.20194 | -48.17327 | 6231 ft | 164 kts | 103° |
| 2026-05-06 13:51 | -22.20479 | -48.16155 | 6224 ft | 162 kts | 103° |
| 2026-05-06 13:52 | -22.20388 | -48.14974 | 6214 ft | 162 kts | 61° |
| 2026-05-06 13:52 | -22.19717 | -48.14009 | 6219 ft | 161 kts | 47° |
| 2026-05-06 13:52 | -22.18867 | -48.13225 | 6224 ft | 159 kts | 40° |
| 2026-05-06 13:52 | -22.18010 | -48.12486 | 6228 ft | 159 kts | 40° |
| 2026-05-06 13:53 | -22.17135 | -48.11734 | 6221 ft | 161 kts | 40° |
| 2026-05-06 13:53 | -22.16262 | -48.10984 | 6218 ft | 160 kts | 40° |
| 2026-05-06 13:53 | -22.15274 | -48.10469 | 6215 ft | 162 kts | 8° |
| 2026-05-06 13:53 | -22.14146 | -48.10530 | 6226 ft | 162 kts | 360° |
| 2026-05-06 13:54 | -22.13015 | -48.10547 | 6235 ft | 163 kts | 4° |
| 2026-05-06 13:54 | -22.11867 | -48.10507 | 6228 ft | 165 kts | 4° |
| 2026-05-06 13:54 | -22.10728 | -48.10466 | 6229 ft | 163 kts | 5° |
| 2026-05-06 13:54 | -22.09587 | -48.10413 | 6242 ft | 166 kts | 5° |
| 2026-05-06 13:55 | -22.08420 | -48.10350 | 6173 ft | 170 kts | 5° |
| 2026-05-06 13:55 | -22.07274 | -48.10302 | 5987 ft | 162 kts | 5° |
| 2026-05-06 13:55 | -22.06151 | -48.10255 | 5730 ft | 162 kts | 5° |
| 2026-05-06 13:55 | -22.05041 | -48.10201 | 5515 ft | 155 kts | 4° |
| 2026-05-06 13:56 | -22.04034 | -48.10097 | 5455 ft | 143 kts | 20° |
| 2026-05-06 13:56 | -22.03211 | -48.09492 | 5239 ft | 148 kts | 41° |
| 2026-05-06 13:56 | -22.02398 | -48.08781 | 4989 ft | 151 kts | 39° |
| 2026-05-06 13:56 | -22.01559 | -48.08070 | 4777 ft | 154 kts | 39° |
| 2026-05-06 13:57 | -22.00735 | -48.07372 | 4596 ft | 148 kts | 39° |
| 2026-05-06 13:57 | -21.99936 | -48.06695 | 4427 ft | 149 kts | 39° |
| 2026-05-06 13:57 | -21.99117 | -48.05998 | 4245 ft | 149 kts | 38° |
| 2026-05-06 13:57 | -21.98307 | -48.05310 | 4133 ft | 145 kts | 38° |
| 2026-05-06 13:58 | -21.97539 | -48.04657 | 4126 ft | 137 kts | 38° |
| 2026-05-06 13:58 | -21.96795 | -48.04029 | 4118 ft | 134 kts | 37° |
| 2026-05-06 13:58 | -21.95956 | -48.03745 | 4109 ft | 121 kts | 352° |
| 2026-05-06 13:58 | -21.95239 | -48.04065 | 4057 ft | 107 kts | 326° |
| 2026-05-06 13:59 | -21.94621 | -48.04480 | 3981 ft | 107 kts | 329° |
| 2026-05-06 13:59 | -21.93936 | -48.04919 | 3929 ft | 124 kts | 329° |
| 2026-05-06 13:59 | -21.93173 | -48.05411 | 3904 ft | 130 kts | 329° |
| 2026-05-06 13:59 | -21.92375 | -48.05934 | 3813 ft | 138 kts | 329° |
| 2026-05-06 14:00 | -21.91534 | -48.06486 | 3702 ft | 144 kts | 329° |
| 2026-05-06 14:00 | -21.90672 | -48.07053 | 3611 ft | 145 kts | 329° |
| 2026-05-06 14:00 | -21.89824 | -48.07614 | 3587 ft | 142 kts | 329° |
| 2026-05-06 14:00 | -21.88985 | -48.08168 | 3561 ft | 141 kts | 330° |
| 2026-05-06 14:01 | -21.88147 | -48.08722 | 3535 ft | 141 kts | 330° |
| 2026-05-06 14:01 | -21.87307 | -48.09273 | 3509 ft | 141 kts | 330° |
| 2026-05-06 14:01 | -21.86471 | -48.09822 | 3452 ft | 144 kts | 330° |
| 2026-05-06 14:01 | -21.85626 | -48.10380 | 3349 ft | 138 kts | 330° |
| 2026-05-06 14:02 | -21.84856 | -48.10894 | 3232 ft | 121 kts | 329° |
| 2026-05-06 14:02 | -21.84170 | -48.11365 | 3025 ft | 112 kts | 329° |
| 2026-05-06 14:02 | -21.83523 | -48.11791 | 2837 ft | 106 kts | 331° |
| 2026-05-06 14:02 | -21.82902 | -48.12197 | 2651 ft | 103 kts | 330° |
| 2026-05-06 14:03 | -21.82304 | -48.12591 | 2485 ft | 99 kts | 330° |
| 2026-05-06 14:03 | -21.81723 | -48.12965 | 2343 ft | 94 kts | 329° |
| 2026-05-06 14:03 | -21.81207 | -48.13298 | 2315 ft | 77 kts | 330° |
| 2026-05-06 14:03 | -21.80828 | -48.13548 | 2294 ft | 50 kts | 328° |
| 2026-05-06 14:04 | -21.80641 | -48.13670 | 2284 ft | 26 kts | 329° |
| 2026-05-06 14:04 | -21.80519 | -48.13753 | 2282 ft | 18 kts | 309° |
| 2026-05-06 14:04 | -21.80537 | -48.13826 | 2274 ft | 17 kts | 235° |
| 2026-05-06 14:04 | -21.80579 | -48.13924 | 2279 ft | 13 kts | 245° |
| 2026-05-06 14:05 | -21.80594 | -48.13948 | 2278 ft | 0 kts | 233° |